Overview Statistics Trail Chart Weather Telemetry Raw packets
 

This is the latest recevied weather packets stored in our database for station/object WX0ABE-13. If no packets are shown the sender has not sent any weather packets the latest 10 day(s).

<< 53 54 55 56 57 58 59 >>
Time Temp. Humidity Pressure Rain* Wind** Luminosity Snow
1787976933 26.11° C 44% 1016.7 hPa 0 mm - 0 W/m² -
1787976633 26.67° C 43% 1016.7 hPa 0 mm - 0 W/m² -
1787976328 26.67° C 42% 1016.7 hPa 0 mm - 0 W/m² -
1787976023 27.22° C 41% 1016.7 hPa 0 mm - 0 W/m² -
1787975721 27.78° C 39% 1016.7 hPa 0 mm - 0 W/m² -
1787975421 27.78° C 39% 1016.8 hPa 0 mm - 0 W/m² -
1787975120 27.78° C 38% 1016.7 hPa 0 mm - 0 W/m² -
1787974819 27.78° C 38% 1017 hPa 0 mm - 0 W/m² -
1787974519 27.22° C 38% 1017 hPa 0 mm - 0 W/m² -
1787974214 26.67° C 42% 1017 hPa 0 mm - 0 W/m² -
1787973913 26.67° C 41% 1016.6 hPa 0 mm - 0 W/m² -
1787973608 26.67° C 40% 1016.3 hPa 0 mm - 0 W/m² -
1787973310 27.22° C 40% 1016.3 hPa 0 mm - 0 W/m² -
1787973002 27.22° C 39% 1016.4 hPa 0 mm - 0 W/m² -
1787972698 27.22° C 39% 1016.6 hPa 0 mm - 0 W/m² -
1787972396 27.22° C 38% 1016.7 hPa 0 mm - 0 W/m² -
1787972098 27.22° C 39% 1016.4 hPa 0 mm - 0 W/m² -
1787971792 27.22° C 40% 1016.5 hPa 0 mm - 0 W/m² -
1787971488 27.22° C 39% 1016.6 hPa 0 mm - 0 W/m² -
1787971184 27.78° C 39% 1016.4 hPa 0 mm - 0 W/m² -
1787970883 27.78° C 39% 1016.4 hPa 0 mm - 0 W/m² -
1787970577 28.89° C 38% 1016.4 hPa 0 mm - 0 W/m² -
1787970273 30° C 33% 1016.3 hPa 0 mm - 0 W/m² -
1787969971 30.56° C 30% 1015.9 hPa 0 mm - 0 W/m² -
1787969671 31.11° C 30% 1015.8 hPa 0 mm - 0 W/m² -

* Rain latest hour (hover to see other rain measurements)
** Current wind speed in m/s (hover to see current wind gust speed)